Time;durP1;ratioP1;P1;durP2;ratioP2;P2;SDS_P1;SDS_P2;PMS_P1;PMS_P2;Temp;Humidity;BMP_temperature;BMP_pressure;BME280_temperature;BME280_humidity;BME280_pressure;Samples;Min_cycle;Max_cycle;Signal;HPM_P1;HPM_P2
2022/10/12 00:00:20;;;;;;;8.32;5.03;;;;;;;7.23;100.00;102435.31;5266882;28;20032;-72
2022/10/12 00:02:51;;;;;;;10.10;5.40;;;;;;;7.20;100.00;102440.69;5265217;28;20052;-72
2022/10/12 00:05:22;;;;;;;12.07;5.80;;;;;;;7.16;100.00;102428.69;5265686;28;20058;-72
2022/10/12 00:07:54;;;;;;;11.98;6.07;;;;;;;7.19;100.00;102437.22;5267506;28;20032;-72
2022/10/12 00:10:25;;;;;;;10.02;5.45;;;;;;;7.19;100.00;102437.22;5264823;28;20393;-72
2022/10/12 00:12:57;;;;;;;11.52;5.90;;;;;;;7.17;100.00;102443.44;5266293;28;20542;-72
2022/10/12 00:15:29;;;;;;;12.30;6.28;;;;;;;7.13;100.00;102431.47;5267439;28;20028;-72
2022/10/12 00:18:00;;;;;;;9.88;6.20;;;;;;;7.10;100.00;102424.63;5263720;28;20039;-73
2022/10/12 00:20:31;;;;;;;11.43;5.82;;;;;;;7.09;100.00;102430.75;5266511;28;20031;-73
2022/10/12 00:23:03;;;;;;;8.85;5.47;;;;;;;7.09;100.00;102435.13;5266406;28;20021;-73
2022/10/12 00:25:40;;;;;;;10.13;5.30;;;;;;;7.22;100.00;102436.25;5264527;28;20103;-73
2022/10/12 00:28:12;;;;;;;7.97;5.07;;;;;;;7.03;100.00;102429.25;5266433;28;20032;-73
2022/10/12 00:30:43;;;;;;;9.85;5.65;;;;;;;7.03;100.00;102433.63;5265065;28;20027;-73
2022/10/12 00:33:14;;;;;;;10.35;5.63;;;;;;;7.01;100.00;102433.69;5263993;28;20052;-73
2022/10/12 00:35:45;;;;;;;8.43;5.20;;;;;;;6.98;100.00;102433.81;5266668;28;20036;-73
2022/10/12 00:38:17;;;;;;;10.70;5.82;;;;;;;6.92;100.00;102421.06;5264209;28;20025;-72
2022/10/12 00:40:48;;;;;;;8.23;5.60;;;;;;;6.99;100.00;102432.91;5265106;28;20054;-72
2022/10/12 00:43:33;;;;;;;8.88;5.60;;;;;;;7.09;100.00;102430.75;5240517;28;20377;-72
2022/10/12 00:46:17;;;;;;;9.38;5.85;;;;;;;7.05;100.00;102442.22;5264158;28;20025;-72
2022/10/12 00:49:00;;;;;;;11.10;6.07;;;;;;;7.05;100.00;102434.41;5265213;28;20055;-72
2022/10/12 00:51:32;;;;;;;10.00;5.93;;;;;;;7.01;100.00;102438.91;5263761;28;20009;-72
2022/10/12 00:54:07;;;;;;;8.75;5.25;;;;;;;7.02;100.00;102434.53;5268090;28;20025;-72
2022/10/12 00:56:42;;;;;;;8.27;4.80;;;;;;;6.98;100.00;102438.19;5267464;28;20031;-72
2022/10/12 00:59:25;;;;;;;10.40;5.22;;;;;;;7.09;100.00;102438.56;5267888;28;20039;-72
2022/10/12 01:01:56;;;;;;;8.05;4.20;;;;;;;7.06;100.00;102438.69;5270117;28;20436;-72
2022/10/12 01:04:30;;;;;;;9.10;4.22;;;;;;;7.10;100.00;102445.47;5267804;28;20066;-73
2022/10/12 01:07:01;;;;;;;8.50;4.20;;;;;;;7.02;100.00;102439.75;5270631;28;20389;-73
2022/10/12 01:09:33;;;;;;;6.60;4.28;;;;;;;7.06;100.00;102433.50;5244630;28;20028;-72
2022/10/12 01:12:06;;;;;;;8.98;3.85;;;;;;;7.07;100.00;102430.81;5270038;28;20029;-72
2022/10/12 01:14:37;;;;;;;10.23;4.35;;;;;;;7.06;100.00;102408.28;5268118;28;20028;-73
2022/10/12 01:17:33;;;;;;;10.73;4.75;;;;;;;7.24;100.00;102424.84;5264338;28;20097;-73
2022/10/12 01:20:31;;;;;;;11.00;5.05;;;;;;;7.40;100.00;102417.16;5270112;28;20021;-72
2022/10/12 01:23:17;;;;;;;9.02;5.22;;;;;;;7.31;100.00;102410.63;5258903;28;20374;-72
2022/10/12 01:26:04;;;;;;;10.60;4.78;;;;;;;7.30;100.00;102410.66;5258597;28;20033;-72
2022/10/12 01:28:53;;;;;;;9.75;5.45;;;;;;;7.33;100.00;102402.72;5267334;28;20064;-73
2022/10/12 01:31:31;;;;;;;7.53;4.78;;;;;;;7.28;100.00;102402.09;5268426;28;20497;-72
2022/10/12 01:34:12;;;;;;;8.68;5.40;;;;;;;7.26;100.00;102401.31;5266389;28;20144;-72
2022/10/12 01:36:51;;;;;;;10.60;5.22;;;;;;;7.23;100.00;102404.03;5268902;28;20471;-72
2022/10/12 01:39:27;;;;;;;9.65;4.90;;;;;;;7.28;100.00;102400.31;5272131;28;20039;-72
2022/10/12 01:42:15;;;;;;;9.35;5.25;;;;;;;7.31;100.00;102394.09;5268234;28;20036;-72
2022/10/12 01:44:46;;;;;;;8.13;4.20;;;;;;;7.15;100.00;102393.97;5268445;28;20057;-73
2022/10/12 01:47:17;;;;;;;7.90;4.10;;;;;;;7.13;100.00;102392.38;5267731;28;20499;-72
2022/10/12 01:49:49;;;;;;;7.65;4.68;;;;;;;7.08;100.00;102384.72;5267235;28;20017;-72
2022/10/12 01:52:25;;;;;;;10.98;5.32;;;;;;;7.18;100.00;102386.00;5268740;28;20035;-73
2022/10/12 01:55:21;;;;;;;7.68;4.50;;;;;;;7.18;100.00;102388.63;5267086;28;20036;-72
2022/10/12 01:57:59;;;;;;;10.43;5.15;;;;;;;7.13;100.00;102387.16;5269376;28;20381;-72
2022/10/12 02:00:40;;;;;;;8.98;4.28;;;;;;;7.18;100.00;102382.56;5266462;28;20036;-72
2022/10/12 02:03:39;;;;;;;9.05;4.55;;;;;;;7.28;100.00;102387.28;5267904;28;20417;-72
2022/10/12 02:06:15;;;;;;;9.25;4.28;;;;;;;7.15;100.00;102382.69;5267039;28;20037;-72
2022/10/12 02:09:01;;;;;;;10.68;5.60;;;;;;;7.07;100.00;102383.88;5267910;28;20021;-72
2022/10/12 02:11:36;;;;;;;9.70;4.50;;;;;;;7.07;100.00;102368.25;5269049;28;20383;-72
2022/10/12 02:14:15;;;;;;;11.90;4.38;;;;;;;7.13;100.00;102366.31;5242990;28;20060;-72
2022/10/12 02:16:53;;;;;;;8.90;4.25;;;;;;;7.11;100.00;102368.97;5269348;28;20033;-72
2022/10/12 02:19:27;;;;;;;6.80;4.22;;;;;;;7.05;100.00;102375.31;5269244;28;20024;-72
2022/10/12 02:22:03;;;;;;;6.07;4.13;;;;;;;7.04;100.00;102371.00;5266808;28;20525;-73
2022/10/12 02:24:37;;;;;;;8.65;4.55;;;;;;;7.01;100.00;102371.16;5269725;28;20404;-73
2022/10/12 02:27:11;;;;;;;7.13;4.18;;;;;;;6.99;100.00;102364.31;5268251;28;20489;-74
2022/10/12 02:29:44;;;;;;;;;;;;;;;7.55;100.00;102366.91;5265393;28;20025;-74
2022/10/12 02:32:59;;;;;;;10.13;3.97;;;;;;;7.29;100.00;102362.91;5288355;22;20319;-74
2022/10/12 02:35:37;;;;;;;9.35;4.35;;;;;;;7.06;100.00;102366.56;5288607;28;20587;-74
2022/10/12 02:38:23;;;;;;;6.90;4.10;;;;;;;7.07;100.00;102363.03;5297107;28;20024;-74
2022/10/12 02:41:00;;;;;;;9.02;4.55;;;;;;;6.94;100.00;102372.34;5298236;28;20007;-74
2022/10/12 02:43:46;;;;;;;11.48;4.30;;;;;;;6.98;100.00;102362.63;5294078;28;20033;-74
2022/10/12 02:46:19;;;;;;;9.23;4.65;;;;;;;6.76;100.00;102358.38;5297973;28;20638;-74
2022/10/12 02:48:52;;;;;;;9.82;4.07;;;;;;;6.78;100.00;102359.16;5292997;28;20032;-74
2022/10/12 02:51:25;;;;;;;;;;;;;;;7.37;100.00;102362.53;5297606;28;20016;-74
2022/10/12 02:53:56;;;;;;;6.43;4.00;;;;;;;6.75;100.00;102355.84;5298494;28;20372;-74
2022/10/12 02:56:28;;;;;;;7.07;4.13;;;;;;;6.70;100.00;102353.44;5293095;28;20028;-74
2022/10/12 02:58:59;;;;;;;9.02;4.05;;;;;;;6.65;100.00;102358.00;5290485;28;20537;-74
2022/10/12 03:01:30;;;;;;;9.30;4.28;;;;;;;6.53;100.00;102340.31;5296297;28;20019;-73
2022/10/12 03:04:02;;;;;;;5.40;3.45;;;;;;;6.57;100.00;102342.72;5295918;28;20024;-73
2022/10/12 03:06:33;;;;;;;7.85;3.80;;;;;;;6.50;100.00;102336.09;5297584;28;20039;-73
2022/10/12 03:09:05;;;;;;;6.40;4.25;;;;;;;6.46;100.00;102344.94;5295905;28;20380;-75
2022/10/12 03:11:42;;;;;;;7.55;3.50;;;;;;;6.40;100.00;102333.94;5297908;28;20020;-75
2022/10/12 03:14:15;;;;;;;6.90;3.80;;;;;;;6.36;100.00;102340.19;5270464;28;20451;-75
2022/10/12 03:16:47;;;;;;;4.93;3.58;;;;;;;6.44;100.00;102338.97;5295582;28;20031;-76
2022/10/12 03:19:18;;;;;;;7.07;4.20;;;;;;;6.32;100.00;102336.88;5295076;28;20024;-75
2022/10/12 03:21:49;;;;;;;7.38;4.05;;;;;;;6.31;100.00;102330.00;5295440;28;20530;-76
2022/10/12 03:24:20;;;;;;;6.28;3.60;;;;;;;6.31;100.00;102341.25;5296121;28;20408;-75
2022/10/12 03:26:52;;;;;;;8.70;3.95;;;;;;;6.22;100.00;102333.84;5296690;28;20776;-75
2022/10/12 03:29:23;;;;;;;8.25;3.70;;;;;;;6.22;100.00;102335.59;5295715;28;20040;-75
2022/10/12 03:31:54;;;;;;;7.10;3.50;;;;;;;6.19;100.00;102333.97;5276383;28;20013;-75
2022/10/12 03:34:25;;;;;;;6.03;3.53;;;;;;;6.16;100.00;102346.25;5292135;28;20045;-73
2022/10/12 03:36:57;;;;;;;5.95;3.13;;;;;;;6.18;100.00;102339.25;5283217;28;20028;-72
2022/10/12 03:39:28;;;;;;;6.35;3.65;;;;;;;6.13;100.00;102338.56;5294736;28;20021;-73
2022/10/12 03:41:59;;;;;;;8.43;3.60;;;;;;;6.14;100.00;102332.44;5296580;28;20019;-73
2022/10/12 03:44:30;;;;;;;6.97;3.17;;;;;;;6.09;100.00;102337.84;5295717;28;20063;-73
2022/10/12 03:47:02;;;;;;;7.00;3.20;;;;;;;6.08;100.00;102333.56;5296982;28;20020;-73
2022/10/12 03:49:33;;;;;;;7.32;4.10;;;;;;;6.07;100.00;102337.09;5295166;28;20078;-73
2022/10/12 03:52:05;;;;;;;7.13;3.63;;;;;;;6.10;100.00;102336.97;5272563;28;20028;-73
2022/10/12 03:54:36;;;;;;;4.78;3.35;;;;;;;6.00;100.00;102328.69;5285593;28;20028;-73
2022/10/12 03:57:07;;;;;;;7.63;3.58;;;;;;;6.02;100.00;102336.41;5296867;28;20097;-74
2022/10/12 03:59:39;;;;;;;10.27;4.43;;;;;;;6.01;100.00;102322.56;5296548;28;20016;-74
2022/10/12 04:02:10;;;;;;;7.85;4.40;;;;;;;6.01;100.00;102330.38;5290447;28;20032;-74
2022/10/12 04:04:41;;;;;;;10.30;4.50;;;;;;;6.00;100.00;102330.44;5291669;28;20024;-73
2022/10/12 04:07:12;;;;;;;11.63;5.50;;;;;;;5.98;100.00;102316.66;5295165;28;20056;-73
2022/10/12 04:09:44;;;;;;;12.55;5.55;;;;;;;6.05;100.00;102316.31;5292683;28;20028;-74
2022/10/12 04:12:15;;;;;;;7.05;4.55;;;;;;;6.12;100.00;102318.69;5277784;28;20020;-74
2022/10/12 04:14:46;;;;;;;9.88;4.50;;;;;;;6.07;100.00;102326.69;5295661;28;20080;-74
2022/10/12 04:17:17;;;;;;;14.35;5.03;;;;;;;6.07;100.00;102326.69;5294777;28;20035;-74
2022/10/12 04:19:49;;;;;;;9.27;4.50;;;;;;;6.05;100.00;102326.72;5295147;28;20103;-74
2022/10/12 04:22:20;;;;;;;12.50;4.55;;;;;;;6.04;100.00;102321.59;5294868;28;20028;-74
2022/10/12 04:24:51;;;;;;;8.38;4.05;;;;;;;6.05;100.00;102329.34;5294456;28;20028;-74
2022/10/12 04:27:23;;;;;;;9.60;4.85;;;;;;;6.06;100.00;102331.06;5293099;28;20055;-74
2022/10/12 04:29:54;;;;;;;10.25;4.88;;;;;;;6.04;100.00;102321.59;5294108;28;20048;-74
2022/10/12 04:32:25;;;;;;;8.45;4.47;;;;;;;6.04;100.00;102326.81;5295724;28;20083;-74
2022/10/12 04:34:57;;;;;;;7.85;4.38;;;;;;;6.01;100.00;102317.38;5294770;28;20384;-74
2022/10/12 04:37:28;;;;;;;11.38;4.88;;;;;;;6.03;100.00;102325.97;5292894;28;20024;-74
2022/10/12 04:39:59;;;;;;;8.23;4.32;;;;;;;5.98;100.00;102312.28;5275088;28;20032;-74
2022/10/12 04:42:31;;;;;;;9.68;4.72;;;;;;;6.00;100.00;102320.03;5293959;28;20076;-74
2022/10/12 04:45:02;;;;;;;10.55;4.60;;;;;;;5.95;100.00;102317.66;5294450;28;20088;-73
2022/10/12 04:47:34;;;;;;;7.65;4.35;;;;;;;5.94;100.00;102321.13;5291410;28;20031;-74
2022/10/12 04:50:06;;;;;;;10.57;4.88;;;;;;;5.90;100.00;102321.28;5293600;28;20016;-74
2022/10/12 04:52:37;;;;;;;14.20;4.55;;;;;;;5.86;100.00;102315.38;5294767;28;20380;-74
2022/10/12 04:55:09;;;;;;;8.25;4.65;;;;;;;5.91;100.00;102329.06;5291263;28;20058;-73
2022/10/12 04:57:40;;;;;;;9.15;5.43;;;;;;;5.90;100.00;102329.09;5293246;28;20354;-74
2022/10/12 05:00:12;;;;;;;9.98;4.60;;;;;;;5.90;100.00;102324.75;5294355;28;20024;-73
2022/10/12 05:02:43;;;;;;;7.35;4.47;;;;;;;5.85;100.00;102330.13;5294641;28;20036;-74
2022/10/12 05:05:14;;;;;;;7.47;4.15;;;;;;;5.88;100.00;102331.78;5293903;28;20075;-75
2022/10/12 05:07:45;;;;;;;9.98;4.70;;;;;;;5.87;100.00;102330.06;5295554;28;20043;-73
2022/10/12 05:10:17;;;;;;;6.15;3.83;;;;;;;5.79;100.00;102316.53;5293717;28;20029;-73
2022/10/12 05:12:48;;;;;;;5.78;3.90;;;;;;;5.78;100.00;102323.50;5294805;28;20377;-74
2022/10/12 05:15:19;;;;;;;6.07;4.13;;;;;;;5.68;100.00;102305.72;5289903;28;20031;-74
2022/10/12 05:17:50;;;;;;;6.38;4.00;;;;;;;5.74;100.00;102318.50;5295739;28;20034;-74
2022/10/12 05:20:22;;;;;;;7.72;4.13;;;;;;;5.65;100.00;102306.72;5295173;28;20016;-73
2022/10/12 05:22:56;;;;;;;6.97;4.43;;;;;;;5.68;100.00;102296.16;5275903;28;20056;-74
2022/10/12 05:25:30;;;;;;;8.43;4.38;;;;;;;5.59;100.00;102300.00;5292252;28;20039;-74
2022/10/12 05:28:02;;;;;;;9.23;5.13;;;;;;;5.64;100.00;102301.56;5294920;28;20205;-74
2022/10/12 05:30:33;;;;;;;6.90;4.38;;;;;;;5.58;100.00;102298.31;5292835;28;20106;-73
2022/10/12 05:33:04;;;;;;;10.23;5.60;;;;;;;5.52;100.00;102292.50;5294354;28;20036;-73
2022/10/12 05:35:36;;;;;;;7.32;5.03;;;;;;;5.52;100.00;102290.75;5276493;28;20046;-73
2022/10/12 05:38:07;;;;;;;7.72;4.60;;;;;;;5.55;100.00;102302.78;5294811;28;20035;-74
2022/10/12 05:40:38;;;;;;;10.65;4.78;;;;;;;5.50;100.00;102309.94;5294242;28;20386;-73
2022/10/12 05:43:10;;;;;;;6.88;4.78;;;;;;;5.45;100.00;102301.47;5297602;28;20396;-73
2022/10/12 05:45:41;;;;;;;8.00;4.65;;;;;;;5.50;100.00;102295.19;5298256;28;20066;-73
2022/10/12 05:48:13;;;;;;;9.35;5.03;;;;;;;5.50;100.00;102295.19;5297921;28;20508;-73
2022/10/12 05:50:44;;;;;;;8.63;5.10;;;;;;;5.51;100.00;102286.47;5299106;28;20016;-73
2022/10/12 05:53:15;;;;;;;9.82;5.05;;;;;;;5.52;100.00;102295.09;5292543;28;20073;-73
2022/10/12 05:55:59;;;;;;;8.75;5.30;;;;;;;5.79;100.00;102300.94;5287600;28;20542;-73
2022/10/12 05:58:31;;;;;;;12.00;4.93;;;;;;;5.57;100.00;102307.03;5297126;28;20032;-73
2022/10/12 06:01:08;;;;;;;9.32;4.85;;;;;;;5.66;100.00;102292.81;5288715;28;20024;-73
2022/10/12 06:03:39;;;;;;;11.68;5.03;;;;;;;5.62;100.00;102301.63;5265553;28;20027;-73
2022/10/12 06:06:10;;;;;;;10.20;5.38;;;;;;;5.67;100.00;102301.44;5295807;28;20028;-73
2022/10/12 06:08:42;;;;;;;8.43;4.93;;;;;;;5.70;100.00;102307.38;5291015;28;20093;-73
2022/10/12 06:11:13;;;;;;;9.25;5.10;;;;;;;5.71;100.00;102305.59;5290321;28;20044;-72
2022/10/12 06:13:44;;;;;;;9.48;5.45;;;;;;;5.73;100.00;102301.22;5298569;28;20077;-73
2022/10/12 06:16:16;;;;;;;6.82;4.90;;;;;;;5.79;100.00;102299.16;5298275;28;20028;-72
2022/10/12 06:18:47;;;;;;;8.30;5.40;;;;;;;5.84;100.00;102301.59;5286844;28;20027;-74
2022/10/12 06:21:18;;;;;;;9.70;5.03;;;;;;;5.79;100.00;102293.97;5298286;28;20414;-73
2022/10/12 06:23:50;;;;;;;9.45;4.93;;;;;;;5.82;100.00;102296.44;5294576;28;20058;-73
2022/10/12 06:26:21;;;;;;;10.13;5.63;;;;;;;5.84;100.00;102297.25;5290438;28;20054;-73
2022/10/12 06:28:52;;;;;;;12.35;5.75;;;;;;;5.88;100.00;102302.31;5291719;28;20028;-74
2022/10/12 06:31:23;;;;;;;10.02;5.40;;;;;;;5.81;100.00;102279.16;5296495;28;20020;-74
2022/10/12 06:33:55;;;;;;;11.75;5.80;;;;;;;5.97;100.00;102304.56;5298636;28;20042;-73
2022/10/12 06:36:26;;;;;;;10.30;5.95;;;;;;;5.98;100.00;102296.69;5297186;28;20482;-74
2022/10/12 06:38:57;;;;;;;8.18;5.25;;;;;;;6.03;100.00;102292.16;5296129;28;20020;-74
2022/10/12 06:41:29;;;;;;;10.88;5.85;;;;;;;6.14;100.00;102294.28;5294124;28;20504;-74
2022/10/12 06:44:00;;;;;;;13.25;6.60;;;;;;;6.20;100.00;102294.00;5292810;28;20031;-74
2022/10/12 06:46:31;;;;;;;14.30;6.53;;;;;;;6.25;100.00;102288.59;5287287;28;20093;-75
2022/10/12 06:49:03;;;;;;;11.43;6.70;;;;;;;6.32;100.00;102298.69;5295663;28;20074;-74
2022/10/12 06:51:34;;;;;;;13.25;6.53;;;;;;;6.39;100.00;102294.06;5290709;28;20032;-74
2022/10/12 06:54:05;;;;;;;13.77;6.50;;;;;;;6.49;100.00;102295.34;5292252;28;20532;-74
2022/10/12 06:56:38;;;;;;;12.80;7.88;;;;;;;6.50;100.00;102289.22;5293200;28;20020;-74
2022/10/12 06:59:12;;;;;;;11.20;7.00;;;;;;;6.64;100.00;102296.44;5292561;28;20032;-74
2022/10/12 07:01:44;;;;;;;11.98;7.00;;;;;;;6.50;100.00;102273.59;5296930;28;20111;-73
2022/10/12 07:04:16;;;;;;;14.48;7.28;;;;;;;6.68;100.00;102305.78;5296936;28;20166;-74
2022/10/12 07:06:48;;;;;;;11.48;6.93;;;;;;;6.70;100.00;102305.72;5275776;28;20068;-74
2022/10/12 07:09:19;;;;;;;14.25;7.60;;;;;;;6.73;100.00;102297.75;5296968;28;20036;-74
2022/10/12 07:11:50;;;;;;;13.65;7.13;;;;;;;6.78;100.00;102306.19;5295596;28;20039;-74
2022/10/12 07:14:22;;;;;;;13.45;7.57;;;;;;;6.76;100.00;102300.22;5295753;28;20437;-74
2022/10/12 07:16:53;;;;;;;11.98;7.15;;;;;;;6.77;100.00;102291.50;5295665;28;20030;-74
2022/10/12 07:19:24;;;;;;;15.82;7.18;;;;;;;6.85;100.00;102289.38;5295417;28;20032;-74
2022/10/12 07:21:55;;;;;;;16.25;8.13;;;;;;;6.91;100.00;102296.09;5297647;28;20067;-74
2022/10/12 07:24:35;;;;;;;12.82;7.35;;;;;;;6.94;100.00;102293.34;5275017;28;20497;-73
2022/10/12 07:27:08;;;;;;;14.18;7.75;;;;;;;7.04;100.00;102284.16;5270275;28;20089;-74
2022/10/12 07:29:40;;;;;;;13.32;7.95;;;;;;;7.04;100.00;102285.00;5294794;28;20027;-74
2022/10/12 07:32:11;;;;;;;13.70;8.65;;;;;;;7.07;100.00;102284.88;5292215;28;20027;-74
2022/10/12 07:34:43;;;;;;;15.23;9.05;;;;;;;7.10;100.00;102278.66;5291143;28;20460;-74
2022/10/12 07:37:14;;;;;;;15.40;9.15;;;;;;;7.13;100.00;102288.97;5294797;28;20115;-74
2022/10/12 07:39:46;;;;;;;20.10;10.65;;;;;;;7.20;100.00;102294.72;5296912;28;20607;-74
2022/10/12 07:42:17;;;;;;;19.73;10.90;;;;;;;7.21;100.00;102286.81;5295011;28;20028;-74
2022/10/12 07:44:48;;;;;;;16.95;9.88;;;;;;;7.23;100.00;102290.19;5296989;28;20085;-74
2022/10/12 07:47:20;;;;;;;22.13;10.85;;;;;;;7.25;100.00;102287.53;5293767;28;20043;-75
2022/10/12 07:49:51;;;;;;;16.65;10.50;;;;;;;7.41;100.00;102298.91;5295609;28;20030;-73
2022/10/12 07:52:22;;;;;;;20.83;10.45;;;;;;;7.40;100.00;102289.41;5296099;28;20043;-74
2022/10/12 07:54:54;;;;;;;23.40;11.68;;;;;;;7.52;100.00;102301.00;5297621;28;20016;-74
2022/10/12 07:57:25;;;;;;;17.83;11.07;;;;;;;7.60;100.00;102295.41;5293668;28;20477;-74
2022/10/12 07:59:56;;;;;;;22.85;11.73;;;;;;;7.66;100.00;102300.34;5294961;28;20032;-73
2022/10/12 08:02:28;;;;;;;21.90;11.43;;;;;;;7.65;100.00;102290.78;5291995;28;20040;-74
2022/10/12 08:04:59;;;;;;;21.42;12.95;;;;;;;7.74;100.00;102296.41;5293322;28;20030;-74
2022/10/12 08:07:30;;;;;;;23.05;12.00;;;;;;;7.76;100.00;102296.31;5296239;28;20027;-74
2022/10/12 08:10:02;;;;;;;18.27;11.93;;;;;;;7.85;100.00;102305.47;5294586;28;20016;-74
2022/10/12 08:12:33;;;;;;;23.17;12.75;;;;;;;7.85;100.00;102311.53;5293607;28;20396;-74
2022/10/12 08:15:05;;;;;;;21.30;12.93;;;;;;;7.96;100.00;102300.56;5292724;28;20023;-74
2022/10/12 08:17:37;;;;;;;19.75;13.35;;;;;;;8.03;100.00;102309.75;5295224;28;20424;-74
2022/10/12 08:20:08;;;;;;;24.67;13.85;;;;;;;8.11;100.00;102291.13;5287218;28;20032;-74
2022/10/12 08:22:41;;;;;;;26.52;15.45;;;;;;;8.28;100.00;102296.28;5292322;28;20143;-74
2022/10/12 08:25:12;;;;;;;27.30;16.83;;;;;;;8.38;100.00;102294.94;5293414;28;20107;-74
2022/10/12 08:27:44;;;;;;;30.00;17.10;;;;;;;8.49;100.00;102297.84;5294760;28;20016;-74
2022/10/12 08:30:15;;;;;;;28.63;17.27;;;;;;;8.57;100.00;102284.38;5293716;28;20365;-74
2022/10/12 08:32:46;;;;;;;23.13;15.95;;;;;;;8.68;100.00;102289.03;5302977;22;20046;-70
2022/10/12 08:35:18;;;;;;;28.88;16.55;;;;;;;8.76;100.00;102281.59;5250535;28;20052;-70
2022/10/12 08:37:49;;;;;;;25.45;16.10;;;;;;;8.85;100.00;102275.03;5250722;28;20032;-71
2022/10/12 08:40:30;;;;;;;26.67;15.82;;;;;;;9.00;100.00;102279.41;5238295;28;20035;-71
2022/10/12 08:43:07;;;;;;;23.85;15.00;;;;;;;9.10;100.00;102287.59;5254346;28;20033;-71
2022/10/12 08:45:53;;;;;;;26.52;15.38;;;;;;;9.27;100.00;102288.31;5253730;28;20361;-71
2022/10/12 08:48:29;;;;;;;22.40;15.43;;;;;;;9.35;100.00;102292.28;5246358;28;20059;-71
2022/10/12 08:51:04;;;;;;;20.48;14.80;;;;;;;9.54;100.00;102287.69;5246154;28;20091;-71
2022/10/12 08:53:51;;;;;;;23.10;14.95;;;;;;;9.73;100.00;102279.63;5244828;28;20393;-71
2022/10/12 08:56:22;;;;;;;23.60;14.75;;;;;;;9.77;100.00;102285.53;5244410;28;20041;-71
2022/10/12 08:58:54;;;;;;;21.92;15.10;;;;;;;9.85;100.00;102278.91;5240719;28;20029;-71
2022/10/12 09:01:49;;;;;;;23.92;14.98;;;;;;;10.11;100.00;102292.22;5238992;28;20018;-71
2022/10/12 09:04:48;;;;;;;23.00;14.95;;;;;;;10.30;100.00;102300.69;5240530;28;21090;-71
2022/10/12 09:07:29;;;;;;;22.35;13.45;;;;;;;10.35;100.00;102296.03;5239515;28;20033;-71
2022/10/12 09:10:26;;;;;;;19.23;13.77;;;;;;;10.52;100.00;102305.47;5237157;28;20099;-71
2022/10/12 09:13:26;;;;;;;19.75;12.52;;;;;;;10.61;100.00;102309.34;5247390;28;20419;-71
2022/10/12 09:16:24;;;;;;;22.02;12.98;;;;;;;10.80;100.00;102314.28;5245941;28;20040;-71
2022/10/12 09:19:06;;;;;;;19.33;13.13;;;;;;;10.77;100.00;102307.44;5242581;28;20021;-71
2022/10/12 09:21:40;;;;;;;18.00;13.98;;;;;;;10.85;100.00;102310.41;5249164;28;20052;-71
2022/10/12 09:24:18;;;;;;;19.15;13.23;;;;;;;10.93;100.00;102305.53;5248333;28;20039;-71
2022/10/12 09:26:53;;;;;;;20.85;14.13;;;;;;;11.05;100.00;102305.69;5248121;28;20102;-71
2022/10/12 09:29:27;;;;;;;19.15;13.82;;;;;;;11.09;100.00;102308.03;5245800;28;20044;-71
2022/10/12 09:32:26;;;;;;;22.08;13.02;;;;;;;11.45;100.00;102303.97;5246519;28;20048;-71
2022/10/12 09:34:58;;;;;;;23.13;12.73;;;;;;;11.42;100.00;102306.81;5252105;28;20516;-71
2022/10/12 09:37:31;;;;;;;21.80;12.98;;;;;;;11.56;100.00;102309.38;5245733;28;20034;-71
2022/10/12 09:40:03;;;;;;;;;;;;;;;12.11;100.00;102302.25;5251528;28;20014;-71
2022/10/12 09:42:35;;;;;;;20.80;12.45;;;;;;;11.79;100.00;102292.09;5250540;28;19931;-71
2022/10/12 09:45:18;;;;;;;21.98;13.45;;;;;;;12.07;100.00;102300.78;5244240;28;20029;-71
2022/10/12 09:48:22;;;;;;;24.35;13.52;;;;;;;12.28;100.00;102299.31;5247858;28;20029;-71
2022/10/12 09:50:57;;;;;;;21.92;13.13;;;;;;;12.34;100.00;102300.66;5249673;28;20025;-71
2022/10/12 09:53:40;;;;;;;21.70;12.57;;;;;;;12.44;100.00;102300.88;5247403;28;20117;-71
2022/10/12 09:56:23;;;;;;;24.33;12.73;;;;;;;12.71;100.00;102284.94;5247590;28;20127;-71
2022/10/12 09:59:02;;;;;;;26.97;14.13;;;;;;;12.82;100.00;102283.25;5248140;28;20036;-71
2022/10/12 10:01:34;;;;;;;20.67;11.98;;;;;;;12.75;100.00;102282.00;5244930;28;20422;-71
2022/10/12 10:04:13;;;;;;;19.10;11.45;;;;;;;13.09;100.00;102277.78;5246578;28;20038;-70
2022/10/12 10:06:45;;;;;;;21.20;11.38;;;;;;;13.18;100.00;102259.63;5246503;28;20398;-70
2022/10/12 10:09:28;;;;;;;17.20;9.93;;;;;;;13.38;100.00;102257.25;5248148;28;20036;-70
2022/10/12 10:12:22;;;;;;;20.77;11.02;;;;;;;13.54;100.00;102250.84;5245214;28;20030;-71
2022/10/12 10:14:56;;;;;;;16.17;9.80;;;;;;;13.59;100.00;102260.06;5249816;28;20470;-74
2022/10/12 10:17:32;;;;;;;;;;;;;;;14.15;100.00;102263.78;5250323;28;20049;-72
2022/10/12 10:20:04;;;;;;;18.10;9.15;;;;;;;13.80;100.00;102262.91;5247403;28;19908;-72
2022/10/12 10:22:36;;;;;;;16.90;9.17;;;;;;;13.91;100.00;102262.06;5248737;28;20013;-72
2022/10/12 10:25:19;;;;;;;16.48;7.97;;;;;;;14.21;100.00;102263.31;5247441;28;20302;-72
2022/10/12 10:28:32;;;;;;;13.85;7.05;;;;;;;14.47;100.00;102263.88;5246159;28;20040;-72
2022/10/12 10:31:21;;;;;;;16.90;7.28;;;;;;;14.45;100.00;102274.56;5160357;28;20102;-72
2022/10/12 10:34:14;;;;;;;12.15;6.68;;;;;;;14.63;100.00;102267.03;5162390;28;20099;-73
2022/10/12 10:36:49;;;;;;;14.07;7.38;;;;;;;14.43;100.00;102267.72;5233852;28;20044;-72
2022/10/12 10:39:45;;;;;;;13.35;6.82;;;;;;;14.68;100.00;102269.31;5245563;28;20028;-73
2022/10/12 10:42:24;;;;;;;13.02;6.15;;;;;;;14.93;100.00;102258.47;5245289;28;20024;-73
2022/10/12 10:45:01;;;;;;;14.85;6.22;;;;;;;14.96;100.00;102257.38;5244548;28;20109;-73
2022/10/12 10:47:40;;;;;;;10.30;5.40;;;;;;;14.98;99.15;102256.28;5249288;28;20047;-73
2022/10/12 10:50:49;;;;;;;10.75;5.55;;;;;;;15.37;100.00;102251.34;5245227;28;20509;-73
2022/10/12 10:53:23;;;;;;;11.73;5.28;;;;;;;15.28;98.31;102258.22;5205135;28;20510;-73
2022/10/12 10:56:03;;;;;;;13.00;5.68;;;;;;;15.35;96.89;102255.09;5244393;28;20039;-73
2022/10/12 10:58:42;;;;;;;13.25;5.88;;;;;;;15.39;93.59;102245.97;5245464;28;20047;-74
2022/10/12 11:01:17;;;;;;;10.00;5.03;;;;;;;15.42;95.78;102240.41;5245590;28;20112;-73
2022/10/12 11:03:57;;;;;;;13.02;5.47;;;;;;;15.40;90.48;102223.84;5246216;28;20033;-73
2022/10/12 11:06:39;;;;;;;10.82;5.15;;;;;;;15.81;93.49;102229.16;5254836;28;20025;-73
2022/10/12 11:09:17;;;;;;;12.52;5.05;;;;;;;15.93;84.33;102224.63;5243167;28;20032;-73
2022/10/12 11:12:13;;;;;;;13.25;5.40;;;;;;;16.11;89.23;102221.38;5244508;28;20029;-73
2022/10/12 11:14:52;;;;;;;13.98;5.72;;;;;;;16.08;86.39;102225.13;5241702;28;20036;-73
2022/10/12 11:17:44;;;;;;;12.43;5.38;;;;;;;16.24;87.91;102220.16;5246418;28;20021;-73
2022/10/12 11:20:44;;;;;;;8.52;5.32;;;;;;;16.40;82.86;102214.41;5249767;28;20025;-73
2022/10/12 11:23:35;;;;;;;12.02;5.13;;;;;;;16.48;80.64;102205.78;5244292;28;20401;-72
2022/10/12 11:26:22;;;;;;;13.38;5.60;;;;;;;16.42;83.35;102198.38;5245532;28;20020;-73
2022/10/12 11:28:56;;;;;;;11.57;5.53;;;;;;;16.37;77.98;102196.16;5242861;28;20026;-73
2022/10/12 11:31:44;;;;;;;11.43;5.35;;;;;;;16.54;78.31;102179.59;5241294;28;20372;-73
2022/10/12 11:34:18;;;;;;;9.65;5.07;;;;;;;16.53;77.35;102180.59;5243481;28;20064;-73
2022/10/12 11:36:53;;;;;;;9.27;4.57;;;;;;;16.51;80.20;102182.53;5239958;28;20037;-73
2022/10/12 11:39:35;;;;;;;10.63;4.45;;;;;;;16.59;79.36;102181.84;5243282;28;20394;-73
2022/10/12 11:42:13;;;;;;;9.82;4.25;;;;;;;16.55;76.71;102161.91;5237993;28;20038;-73
2022/10/12 11:44:46;;;;;;;12.88;4.82;;;;;;;16.58;78.26;102161.66;5239124;28;20036;-73
2022/10/12 11:47:35;;;;;;;10.00;4.60;;;;;;;16.63;77.36;102148.88;5249662;28;20033;-73
2022/10/12 11:50:28;;;;;;;8.10;4.88;;;;;;;16.81;75.75;102153.50;5241339;28;20037;-73
2022/10/12 11:53:04;;;;;;;9.40;4.80;;;;;;;16.62;75.12;102167.50;5240174;28;20140;-73
2022/10/12 11:55:53;;;;;;;11.38;4.90;;;;;;;16.61;75.16;102174.63;5250529;28;20021;-73
2022/10/12 11:58:31;;;;;;;10.10;4.88;;;;;;;16.60;75.27;102170.31;5244726;28;20104;-72